Time;durP1;ratioP1;P1;durP2;ratioP2;P2;SDS_P1;SDS_P2;PMS_P1;PMS_P2;Temp;Humidity;BMP_temperature;BMP_pressure;BME280_temperature;BME280_humidity;BME280_pressure;Samples;Min_cycle;Max_cycle;Signal;HPM_P1;HPM_P2
2022/11/13 00:01:11;;;;;;;28.75;22.92;;;;;;;;;;5034648;28;20124;-85
2022/11/13 00:03:37;;;;;;;26.95;22.08;;;;;;;;;;5015760;28;20046;-85
2022/11/13 00:06:03;;;;;;;28.35;21.13;;;;;;;;;;5035033;28;20041;-85
2022/11/13 00:08:29;;;;;;;27.48;22.00;;;;;;;;;;5032200;28;20077;-85
2022/11/13 00:11:07;;;;;;;29.58;21.92;;;;;;;;;;5029343;28;20041;-85
2022/11/13 00:13:33;;;;;;;26.83;19.67;;;;;;;;;;5035336;28;20050;-85
2022/11/13 00:16:00;;;;;;;27.70;19.17;;;;;;;;;;5034082;28;20030;-85
2022/11/13 00:18:26;;;;;;;25.05;20.02;;;;;;;;;;5034181;28;20060;-85
2022/11/13 00:20:52;;;;;;;26.75;20.17;;;;;;;;;;5034898;28;20496;-85
2022/11/13 00:23:18;;;;;;;27.20;21.33;;;;;;;;;;5034020;28;20040;-85
2022/11/13 00:25:44;;;;;;;27.95;20.52;;;;;;;;;;5007576;28;20046;-85
2022/11/13 00:28:10;;;;;;;24.83;19.67;;;;;;;;;;5032227;28;20091;-85
2022/11/13 00:30:36;;;;;;;28.65;23.05;;;;;;;;;;5034612;28;20471;-85
2022/11/13 00:33:02;;;;;;;31.95;25.10;;;;;;;;;;5017456;28;20045;-85
2022/11/13 00:35:28;;;;;;;32.00;25.02;;;;;;;;;;5033904;28;20046;-85
2022/11/13 00:37:54;;;;;;;34.63;26.02;;;;;;;;;;5035400;28;20550;-85
2022/11/13 00:40:20;;;;;;;38.83;30.20;;;;;;;;;;5034065;28;20095;-85
2022/11/13 00:42:46;;;;;;;39.55;28.58;;;;;;;;;;5018903;28;20049;-85
2022/11/13 00:45:13;;;;;;;48.20;35.80;;;;;;;;;;5013616;28;20500;-85
2022/11/13 00:47:39;;;;;;;45.20;34.40;;;;;;;;;;5014578;28;20049;-85
2022/11/13 00:50:05;;;;;;;44.25;34.90;;;;;;;;;;4999691;28;20090;-85
2022/11/13 00:52:31;;;;;;;52.28;38.90;;;;;;;;;;5038044;28;20053;-85
2022/11/13 00:54:57;;;;;;;51.13;39.70;;;;;;;;;;5054400;28;20032;-85
2022/11/13 00:57:23;;;;;;;54.83;40.15;;;;;;;;;;5057245;28;20081;-86
2022/11/13 00:59:49;;;;;;;50.35;40.58;;;;;;;;;;5043510;28;20049;-85
2022/11/13 01:02:15;;;;;;;49.70;38.70;;;;;;;;;;5034366;28;20054;-85
2022/11/13 01:04:42;;;;;;;48.25;36.53;;;;;;;;;;5034017;28;20054;-85
2022/11/13 01:07:08;;;;;;;39.97;32.75;;;;;;;;;;5014685;28;20045;-85
2022/11/13 01:09:34;;;;;;;43.53;34.72;;;;;;;;;;5015571;28;20045;-85
2022/11/13 01:12:00;;;;;;;47.30;39.15;;;;;;;;;;5015808;28;20061;-85
2022/11/13 01:14:26;;;;;;;49.47;40.42;;;;;;;;;;5034489;28;20452;-85
2022/11/13 01:16:52;;;;;;;48.97;40.47;;;;;;;;;;5013579;28;20062;-85
2022/11/13 01:19:18;;;;;;;46.13;39.60;;;;;;;;;;5031763;28;20052;-85
2022/11/13 01:21:44;;;;;;;45.55;37.38;;;;;;;;;;5021950;28;20045;-85
2022/11/13 01:24:10;;;;;;;45.45;37.30;;;;;;;;;;5033963;28;20488;-85
2022/11/13 01:26:36;;;;;;;44.65;36.95;;;;;;;;;;5015298;28;20068;-85
2022/11/13 01:29:02;;;;;;;43.97;34.75;;;;;;;;;;5015742;28;20057;-85
2022/11/13 01:31:29;;;;;;;43.88;35.05;;;;;;;;;;5015048;28;20045;-85
2022/11/13 01:33:55;;;;;;;44.15;34.67;;;;;;;;;;5033545;28;20096;-85
2022/11/13 01:36:23;;;;;;;37.85;32.70;;;;;;;;;;5034058;28;20038;-85
2022/11/13 01:38:49;;;;;;;39.05;32.35;;;;;;;;;;5034013;28;20053;-85
2022/11/13 01:41:20;;;;;;;36.60;29.77;;;;;;;;;;5031441;28;20051;-85
2022/11/13 01:43:46;;;;;;;36.60;28.70;;;;;;;;;;5032361;28;20037;-85
2022/11/13 01:46:26;;;;;;;36.13;28.85;;;;;;;;;;5031977;28;21650;-85
2022/11/13 01:49:01;;;;;;;35.35;27.38;;;;;;;;;;4998582;28;20053;-85
2022/11/13 01:51:30;;;;;;;34.50;26.35;;;;;;;;;;5032707;28;20441;-85
2022/11/13 01:53:56;;;;;;;33.03;26.55;;;;;;;;;;5017050;28;20148;-85
2022/11/13 01:56:23;;;;;;;30.55;24.70;;;;;;;;;;5031435;28;20041;-85
2022/11/13 01:58:52;;;;;;;29.27;23.75;;;;;;;;;;5015308;28;20045;-85
2022/11/13 02:01:18;;;;;;;31.00;23.25;;;;;;;;;;5015229;28;20084;-85
2022/11/13 02:03:44;;;;;;;30.73;23.45;;;;;;;;;;5032555;28;20045;-85
2022/11/13 02:06:10;;;;;;;30.88;22.63;;;;;;;;;;5014964;28;20041;-85
2022/11/13 02:08:36;;;;;;;28.45;22.50;;;;;;;;;;5015195;28;20052;-85
2022/11/13 02:11:03;;;;;;;28.17;22.77;;;;;;;;;;5015268;28;20474;-84
2022/11/13 02:13:30;;;;;;;26.20;22.30;;;;;;;;;;5033380;28;20092;-85
2022/11/13 02:15:56;;;;;;;27.90;22.83;;;;;;;;;;5033170;28;20041;-85
2022/11/13 02:18:23;;;;;;;28.83;22.27;;;;;;;;;;5033940;28;20061;-85
2022/11/13 02:21:04;;;;;;;27.75;22.65;;;;;;;;;;5033140;28;20052;-85
2022/11/13 02:23:54;;;;;;;25.70;21.70;;;;;;;;;;5030987;28;20045;-85
2022/11/13 02:26:20;;;;;;;27.23;21.33;;;;;;;;;;4972605;28;20125;-85
2022/11/13 02:28:46;;;;;;;28.63;22.60;;;;;;;;;;4971441;28;20054;-85
2022/11/13 02:31:13;;;;;;;25.52;21.10;;;;;;;;;;4969586;28;20057;-85
2022/11/13 02:33:39;;;;;;;29.27;21.90;;;;;;;;;;4956827;28;20086;-85
2022/11/13 02:36:08;;;;;;;28.02;21.50;;;;;;;;;;4972315;28;20113;-85
2022/11/13 02:38:35;;;;;;;26.48;22.10;;;;;;;;;;4972644;28;20536;-85
2022/11/13 02:41:01;;;;;;;26.38;21.88;;;;;;;;;;4955418;28;20385;-85
2022/11/13 02:43:27;;;;;;;28.20;21.67;;;;;;;;;;4980212;28;20055;-85
2022/11/13 02:45:54;;;;;;;29.88;21.85;;;;;;;;;;4956551;28;20082;-85
2022/11/13 02:48:20;;;;;;;32.88;21.92;;;;;;;;;;4973172;28;20051;-85
2022/11/13 02:50:46;;;;;;;26.38;21.50;;;;;;;;;;4973016;28;20067;-85
2022/11/13 02:53:13;;;;;;;29.52;21.63;;;;;;;;;;4974116;28;20433;-85
2022/11/13 02:55:39;;;;;;;26.17;21.25;;;;;;;;;;4972320;28;20106;-85
2022/11/13 02:58:05;;;;;;;28.52;21.95;;;;;;;;;;4972031;28;20043;-85
2022/11/13 03:00:31;;;;;;;29.08;21.33;;;;;;;;;;4971910;28;20094;-85
2022/11/13 03:02:57;;;;;;;25.58;21.52;;;;;;;;;;4997978;28;20088;-85
2022/11/13 03:05:23;;;;;;;29.65;21.73;;;;;;;;;;5029824;28;20052;-85
2022/11/13 03:07:49;;;;;;;26.88;21.13;;;;;;;;;;5013020;28;20042;-85
2022/11/13 03:10:15;;;;;;;28.23;21.55;;;;;;;;;;5013067;28;20554;-85
2022/11/13 03:12:41;;;;;;;25.10;20.77;;;;;;;;;;5025917;28;20042;-85
2022/11/13 03:15:08;;;;;;;25.98;20.83;;;;;;;;;;5009093;28;20077;-85
2022/11/13 03:17:34;;;;;;;24.90;19.92;;;;;;;;;;5014003;28;20037;-86
2022/11/13 03:20:00;;;;;;;23.75;20.00;;;;;;;;;;5058305;28;20057;-86
2022/11/13 03:22:27;;;;;;;24.60;19.52;;;;;;;;;;5044767;28;20098;-85
2022/11/13 03:24:53;;;;;;;23.52;19.45;;;;;;;;;;5032395;28;20401;-85
2022/11/13 03:27:19;;;;;;;25.77;19.42;;;;;;;;;;5031948;28;20408;-85
2022/11/13 03:29:45;;;;;;;24.50;19.90;;;;;;;;;;5029951;28;20107;-85
2022/11/13 03:32:11;;;;;;;27.20;20.10;;;;;;;;;;5013752;28;20045;-85
2022/11/13 03:34:38;;;;;;;27.05;20.42;;;;;;;;;;5031295;28;20045;-85
2022/11/13 03:37:04;;;;;;;26.70;20.52;;;;;;;;;;5030237;28;20412;-85
2022/11/13 03:39:30;;;;;;;30.90;21.25;;;;;;;;;;5015353;28;20054;-85
2022/11/13 03:41:56;;;;;;;28.70;19.70;;;;;;;;;;5031142;28;20210;-85
2022/11/13 03:44:22;;;;;;;28.10;20.30;;;;;;;;;;5011087;28;20064;-85
2022/11/13 03:46:48;;;;;;;27.23;20.67;;;;;;;;;;5014850;28;20416;-85
2022/11/13 03:49:14;;;;;;;26.00;19.35;;;;;;;;;;5017468;28;20046;-85
2022/11/13 03:51:40;;;;;;;26.33;20.65;;;;;;;;;;5035601;28;20460;-85
2022/11/13 03:54:06;;;;;;;24.27;19.70;;;;;;;;;;5035860;28;20048;-85
2022/11/13 03:56:32;;;;;;;25.20;19.67;;;;;;;;;;5018497;28;20455;-85
2022/11/13 03:58:58;;;;;;;27.27;21.25;;;;;;;;;;5034819;28;20045;-85
2022/11/13 04:01:24;;;;;;;27.67;20.95;;;;;;;;;;5035755;28;20095;-85
2022/11/13 04:03:50;;;;;;;30.38;21.38;;;;;;;;;;5033907;28;20496;-85
2022/11/13 04:06:16;;;;;;;28.67;21.70;;;;;;;;;;5035296;28;20072;-85
2022/11/13 04:08:42;;;;;;;24.55;19.88;;;;;;;;;;5034292;28;20373;-85
2022/11/13 04:11:09;;;;;;;27.30;20.05;;;;;;;;;;5018234;28;20393;-85
2022/11/13 04:13:35;;;;;;;28.95;20.95;;;;;;;;;;5034895;28;20049;-85
2022/11/13 04:16:01;;;;;;;29.02;20.73;;;;;;;;;;5035308;28;20453;-85
2022/11/13 04:18:27;;;;;;;27.50;20.58;;;;;;;;;;5018192;28;20106;-85
2022/11/13 04:20:58;;;;;;;26.75;20.33;;;;;;;;;;5033609;28;20176;-85
2022/11/13 04:23:24;;;;;;;27.15;20.42;;;;;;;;;;5018189;28;20049;-85
2022/11/13 04:25:50;;;;;;;27.30;20.48;;;;;;;;;;5000965;28;20052;-86
2022/11/13 04:28:16;;;;;;;27.13;20.90;;;;;;;;;;5016826;28;20045;-85
2022/11/13 04:30:42;;;;;;;26.67;20.98;;;;;;;;;;5016739;28;20129;-85
2022/11/13 04:33:08;;;;;;;25.80;20.17;;;;;;;;;;5034620;28;20520;-85
2022/11/13 04:35:34;;;;;;;28.55;20.58;;;;;;;;;;5033483;28;20073;-86
2022/11/13 04:38:00;;;;;;;25.77;19.95;;;;;;;;;;5034452;28;20040;-85
2022/11/13 04:40:26;;;;;;;24.42;19.88;;;;;;;;;;5032886;28;20134;-85
2022/11/13 04:42:52;;;;;;;28.20;20.85;;;;;;;;;;5035879;28;20440;-85
2022/11/13 04:45:19;;;;;;;24.08;19.20;;;;;;;;;;5035143;28;20076;-85
2022/11/13 04:47:45;;;;;;;24.30;19.15;;;;;;;;;;5008984;28;20045;-85
2022/11/13 04:50:12;;;;;;;21.33;18.23;;;;;;;;;;5026060;28;20045;-85
2022/11/13 04:52:38;;;;;;;24.33;18.38;;;;;;;;;;5015640;28;20081;-84
2022/11/13 04:55:04;;;;;;;25.13;18.67;;;;;;;;;;4998942;28;20087;-84
2022/11/13 04:57:30;;;;;;;24.25;18.75;;;;;;;;;;5033447;28;20130;-85
2022/11/13 04:59:56;;;;;;;23.42;18.58;;;;;;;;;;5033732;28;20069;-85
2022/11/13 05:02:22;;;;;;;26.38;19.90;;;;;;;;;;5035456;28;20041;-85
2022/11/13 05:04:48;;;;;;;24.15;18.63;;;;;;;;;;5034063;28;20056;-85
2022/11/13 05:07:14;;;;;;;21.83;17.65;;;;;;;;;;5015135;28;20397;-85
2022/11/13 05:09:40;;;;;;;25.45;19.50;;;;;;;;;;5032464;28;20125;-85
2022/11/13 05:12:07;;;;;;;24.02;17.33;;;;;;;;;;5033743;28;20141;-85
2022/11/13 05:14:39;;;;;;;24.70;19.40;;;;;;;;;;5033488;28;20534;-85
2022/11/13 05:17:06;;;;;;;25.10;19.70;;;;;;;;;;5033223;28;20577;-85
2022/11/13 05:19:33;;;;;;;26.30;19.40;;;;;;;;;;5034480;28;20049;-85
2022/11/13 05:21:59;;;;;;;30.30;19.20;;;;;;;;;;5032553;28;20456;-85
2022/11/13 05:24:25;;;;;;;27.83;19.40;;;;;;;;;;5024187;28;20052;-85
2022/11/13 05:26:51;;;;;;;22.27;17.52;;;;;;;;;;5032036;28;20404;-85
2022/11/13 05:29:17;;;;;;;23.90;18.05;;;;;;;;;;5033303;28;20037;-85
2022/11/13 05:31:43;;;;;;;26.00;17.50;;;;;;;;;;5014050;28;20041;-85
2022/11/13 05:34:10;;;;;;;24.42;18.35;;;;;;;;;;5026866;28;20038;-85
2022/11/13 05:36:36;;;;;;;25.17;19.35;;;;;;;;;;5033628;28;20420;-85
2022/11/13 05:39:02;;;;;;;23.45;18.55;;;;;;;;;;5031354;28;20116;-85
2022/11/13 05:41:28;;;;;;;24.45;18.45;;;;;;;;;;5054664;28;20052;-85
2022/11/13 05:43:54;;;;;;;24.40;17.55;;;;;;;;;;5058361;28;20049;-86
2022/11/13 05:46:21;;;;;;;20.98;17.45;;;;;;;;;;5041603;28;20099;-85
2022/11/13 05:48:51;;;;;;;26.20;19.17;;;;;;;;;;5033066;28;20440;-85
2022/11/13 05:51:18;;;;;;;25.45;20.20;;;;;;;;;;5033504;28;20124;-85
2022/11/13 05:53:45;;;;;;;27.42;19.85;;;;;;;;;;5015139;28;20069;-85
2022/11/13 05:56:15;;;;;;;25.13;19.45;;;;;;;;;;5022877;28;20045;-85
2022/11/13 05:58:41;;;;;;;30.95;20.58;;;;;;;;;;5014995;28;20132;-85
2022/11/13 06:01:18;;;;;;;30.95;21.05;;;;;;;;;;5015699;28;20366;-85
2022/11/13 06:03:44;;;;;;;30.38;21.35;;;;;;;;;;5033354;28;20045;-85
2022/11/13 06:06:11;;;;;;;31.63;21.55;;;;;;;;;;5031582;28;20045;-85
2022/11/13 06:08:38;;;;;;;29.77;21.02;;;;;;;;;;5030355;28;20447;-85
2022/11/13 06:11:05;;;;;;;29.75;21.50;;;;;;;;;;5016047;28;20493;-85
2022/11/13 06:13:31;;;;;;;25.83;20.02;;;;;;;;;;5015710;28;20128;-85
2022/11/13 06:16:05;;;;;;;27.27;20.67;;;;;;;;;;5014840;28;20519;-85
2022/11/13 06:18:31;;;;;;;27.08;21.00;;;;;;;;;;5031635;28;20456;-85
2022/11/13 06:21:11;;;;;;;26.13;20.92;;;;;;;;;;5032680;28;20103;-85
2022/11/13 06:23:38;;;;;;;30.17;20.85;;;;;;;;;;5023179;28;20057;-85
2022/11/13 06:26:06;;;;;;;30.02;21.30;;;;;;;;;;5032243;28;20103;-85
2022/11/13 06:28:32;;;;;;;30.92;21.83;;;;;;;;;;5032462;28;20041;-85
2022/11/13 06:31:06;;;;;;;30.40;22.80;;;;;;;;;;5030790;28;20045;-85
2022/11/13 06:33:32;;;;;;;28.25;21.05;;;;;;;;;;5024459;28;20525;-85
2022/11/13 06:36:00;;;;;;;28.08;20.98;;;;;;;;;;5013071;28;20045;-85
2022/11/13 06:38:26;;;;;;;29.08;20.88;;;;;;;;;;5030842;28;20095;-85
2022/11/13 06:40:52;;;;;;;25.52;20.15;;;;;;;;;;5030492;28;20140;-84
2022/11/13 06:43:18;;;;;;;26.08;20.02;;;;;;;;;;5030482;28;20042;-85
2022/11/13 06:45:44;;;;;;;24.95;20.25;;;;;;;;;;5032217;28;20046;-84
2022/11/13 06:48:10;;;;;;;27.70;20.23;;;;;;;;;;5030299;28;20401;-85
2022/11/13 06:50:36;;;;;;;28.38;21.17;;;;;;;;;;5018083;28;20041;-85
2022/11/13 06:53:02;;;;;;;30.67;22.58;;;;;;;;;;5028664;28;20449;-85
2022/11/13 06:55:28;;;;;;;33.17;25.38;;;;;;;;;;5031881;28;20037;-85
2022/11/13 06:57:54;;;;;;;28.10;20.90;;;;;;;;;;5032454;28;20053;-86
2022/11/13 07:00:20;;;;;;;21.15;17.38;;;;;;;;;;5031800;28;20508;-86
2022/11/13 07:02:49;;;;;;;22.42;17.20;;;;;;;;;;5029975;28;20049;-85
2022/11/13 07:05:15;;;;;;;21.60;17.00;;;;;;;;;;5010576;28;20077;-85
2022/11/13 07:07:41;;;;;;;22.48;17.50;;;;;;;;;;5030795;28;20449;-85
2022/11/13 07:10:07;;;;;;;22.25;17.40;;;;;;;;;;5014550;28;20455;-85
2022/11/13 07:12:33;;;;;;;21.85;16.58;;;;;;;;;;5013426;28;20081;-85
2022/11/13 07:14:59;;;;;;;23.25;17.08;;;;;;;;;;5031824;28;20069;-85
2022/11/13 07:17:25;;;;;;;26.45;18.48;;;;;;;;;;5014602;28;20053;-85
2022/11/13 07:19:51;;;;;;;20.42;16.38;;;;;;;;;;5030705;28;20049;-85
2022/11/13 07:22:17;;;;;;;25.70;19.98;;;;;;;;;;5010145;28;20041;-86
2022/11/13 07:24:43;;;;;;;23.58;17.70;;;;;;;;;;5027550;28;20045;-86
2022/11/13 07:27:09;;;;;;;24.05;18.13;;;;;;;;;;5035041;28;20042;-86
2022/11/13 07:29:35;;;;;;;26.50;18.05;;;;;;;;;;5037724;28;20049;-86
2022/11/13 07:32:01;;;;;;;22.77;17.08;;;;;;;;;;5034635;28;20392;-86
2022/11/13 07:34:27;;;;;;;23.83;18.33;;;;;;;;;;5032469;28;20491;-85
2022/11/13 07:36:53;;;;;;;25.40;18.23;;;;;;;;;;5030391;28;20381;-85
2022/11/13 07:39:19;;;;;;;25.50;18.38;;;;;;;;;;5020283;28;20472;-86
2022/11/13 07:41:46;;;;;;;25.23;18.95;;;;;;;;;;5018543;28;20049;-85
2022/11/13 07:44:12;;;;;;;23.63;17.85;;;;;;;;;;5034225;28;20053;-86
2022/11/13 07:46:38;;;;;;;27.25;18.58;;;;;;;;;;5035788;28;20092;-85
2022/11/13 07:49:05;;;;;;;22.65;18.02;;;;;;;;;;5035276;28;20037;-86
2022/11/13 07:51:31;;;;;;;20.50;16.77;;;;;;;;;;5036762;28;20545;-86
2022/11/13 07:53:57;;;;;;;22.23;16.70;;;;;;;;;;5036383;28;20107;-86
2022/11/13 07:56:24;;;;;;;23.83;17.80;;;;;;;;;;5019091;28;20106;-87
2022/11/13 07:58:50;;;;;;;24.30;17.58;;;;;;;;;;5017898;28;20566;-87
2022/11/13 08:01:16;;;;;;;24.67;17.10;;;;;;;;;;5037502;28;20124;-87
2022/11/13 08:03:42;;;;;;;22.83;16.67;;;;;;;;;;5038514;28;20038;-87
2022/11/13 08:06:09;;;;;;;23.95;17.08;;;;;;;;;;5060154;28;20032;-86
2022/11/13 08:08:35;;;;;;;23.63;16.60;;;;;;;;;;5056893;28;20038;-87
2022/11/13 08:11:05;;;;;;;23.65;16.77;;;;;;;;;;5034755;28;20408;-87
2022/11/13 08:13:33;;;;;;;22.13;16.95;;;;;;;;;;5028028;28;20094;-87
2022/11/13 08:15:59;;;;;;;17.85;13.82;;;;;;;;;;5034910;28;20228;-86
2022/11/13 08:18:26;;;;;;;20.95;15.60;;;;;;;;;;5032361;28;20049;-87
2022/11/13 08:20:52;;;;;;;22.98;15.27;;;;;;;;;;5035004;28;20053;-86
2022/11/13 08:23:18;;;;;;;19.95;15.23;;;;;;;;;;5035260;28;20048;-86
2022/11/13 08:25:44;;;;;;;20.38;16.40;;;;;;;;;;5017599;28;20099;-86
2022/11/13 08:28:11;;;;;;;21.27;17.65;;;;;;;;;;5035195;28;20038;-86
2022/11/13 08:30:37;;;;;;;22.25;17.58;;;;;;;;;;5017666;28;20567;-87
2022/11/13 08:33:03;;;;;;;23.00;16.80;;;;;;;;;;5000537;28;20049;-86
2022/11/13 08:35:29;;;;;;;23.00;17.05;;;;;;;;;;5017244;28;20130;-88
2022/11/13 08:38:01;;;;;;;20.92;16.25;;;;;;;;;;5016542;28;20042;-86
2022/11/13 08:40:27;;;;;;;20.42;16.10;;;;;;;;;;5034657;28;20417;-87
2022/11/13 08:42:57;;;;;;;20.20;16.50;;;;;;;;;;5033797;28;20099;-87
2022/11/13 08:45:23;;;;;;;21.55;17.10;;;;;;;;;;5035580;28;20053;-87
2022/11/13 08:47:49;;;;;;;21.08;17.48;;;;;;;;;;5035247;28;20080;-87
2022/11/13 08:50:15;;;;;;;21.50;15.52;;;;;;;;;;5018138;28;20373;-87
2022/11/13 08:52:41;;;;;;;19.90;15.80;;;;;;;;;;5016457;28;20418;-87
2022/11/13 08:55:07;;;;;;;17.90;15.20;;;;;;;;;;5015682;28;20408;-86
2022/11/13 08:57:33;;;;;;;16.95;14.50;;;;;;;;;;5032514;28;20040;-87
2022/11/13 09:00:00;;;;;;;17.13;14.25;;;;;;;;;;5026331;28;20095;-87
2022/11/13 09:02:26;;;;;;;19.63;15.43;;;;;;;;;;5012491;28;20104;-86
2022/11/13 09:04:52;;;;;;;21.40;15.93;;;;;;;;;;5015609;28;20053;-86
2022/11/13 09:07:18;;;;;;;19.52;15.45;;;;;;;;;;4998506;28;20056;-85
2022/11/13 09:09:45;;;;;;;21.73;15.32;;;;;;;;;;5006598;28;20516;-86
2022/11/13 09:12:11;;;;;;;18.83;14.73;;;;;;;;;;5000417;28;20500;-86
2022/11/13 09:14:37;;;;;;;16.70;14.65;;;;;;;;;;5017476;28;20051;-86
2022/11/13 09:17:04;;;;;;;17.85;15.25;;;;;;;;;;5001044;28;20054;-86
2022/11/13 09:19:30;;;;;;;18.52;15.60;;;;;;;;;;5034851;28;20080;-86
2022/11/13 09:21:56;;;;;;;18.13;15.10;;;;;;;;;;5034741;28;20041;-86
2022/11/13 09:24:22;;;;;;;20.33;16.13;;;;;;;;;;5033420;28;20049;-86
2022/11/13 09:26:48;;;;;;;22.42;15.77;;;;;;;;;;5033420;28;20099;-86
2022/11/13 09:29:14;;;;;;;16.65;14.90;;;;;;;;;;5034669;28;20045;-86
2022/11/13 09:31:40;;;;;;;18.10;16.20;;;;;;;;;;5016619;28;20045;-86
2022/11/13 09:34:07;;;;;;;18.13;14.85;;;;;;;;;;5016164;28;20053;-86
2022/11/13 09:36:33;;;;;;;19.23;15.80;;;;;;;;;;5013829;28;20072;-86
2022/11/13 09:39:02;;;;;;;19.52;16.95;;;;;;;;;;5025625;28;20073;-86
2022/11/13 09:41:31;;;;;;;19.15;16.30;;;;;;;;;;4991475;28;20511;-86
2022/11/13 09:44:02;;;;;;;19.08;15.52;;;;;;;;;;5028668;28;20052;-86
2022/11/13 09:46:28;;;;;;;19.83;16.42;;;;;;;;;;5033846;28;20045;-87
2022/11/13 09:48:56;;;;;;;20.83;16.15;;;;;;;;;;5033969;28;20042;-86
2022/11/13 09:51:25;;;;;;;20.63;17.20;;;;;;;;;;5029177;28;20085;-86
2022/11/13 09:53:51;;;;;;;20.60;17.70;;;;;;;;;;5026304;28;20050;-86
2022/11/13 09:56:35;;;;;;;20.20;18.00;;;;;;;;;;5030613;28;20065;-86
2022/11/13 09:59:01;;;;;;;21.10;18.52;;;;;;;;;;5026664;28;20056;-86
2022/11/13 10:01:53;;;;;;;21.13;17.42;;;;;;;;;;5007695;28;20076;-86
2022/11/13 10:04:24;;;;;;;20.27;18.05;;;;;;;;;;5008974;28;20053;-86
2022/11/13 10:07:00;;;;;;;20.08;17.95;;;;;;;;;;5015924;28;20409;-87
2022/11/13 10:09:53;;;;;;;21.27;17.67;;;;;;;;;;5016792;28;20535;-87
2022/11/13 10:12:20;;;;;;;22.15;17.60;;;;;;;;;;5013352;28;20049;-86
2022/11/13 10:14:48;;;;;;;20.85;17.33;;;;;;;;;;5029030;28;20048;-86
2022/11/13 10:17:37;;;;;;;21.38;17.38;;;;;;;;;;5031941;28;20055;-86
2022/11/13 10:20:10;;;;;;;19.83;17.27;;;;;;;;;;5030119;28;20037;-87
2022/11/13 10:22:39;;;;;;;24.25;17.90;;;;;;;;;;5031971;28;20037;-87
2022/11/13 10:25:11;;;;;;;20.20;16.02;;;;;;;;;;5033178;28;20455;-87
2022/11/13 10:27:38;;;;;;;18.83;16.83;;;;;;;;;;5031021;28;20038;-87
2022/11/13 10:30:06;;;;;;;17.88;14.43;;;;;;;;;;5017513;28;20105;-87
2022/11/13 10:32:32;;;;;;;16.58;14.75;;;;;;;;;;5052060;28;20093;-88
2022/11/13 10:34:58;;;;;;;15.80;13.90;;;;;;;;;;5052577;28;20052;-86
2022/11/13 10:37:39;;;;;;;16.92;13.43;;;;;;;;;;5028967;28;20053;-86
2022/11/13 10:40:05;;;;;;;;;;;;;;;;;;5030288;28;20555;-87
2022/11/13 10:42:40;;;;;;;19.75;14.55;;;;;;;;;;5010212;28;19926;-86
2022/11/13 10:45:16;;;;;;;15.85;13.05;;;;;;;;;;5027372;28;20064;-86
2022/11/13 10:47:46;;;;;;;16.58;13.68;;;;;;;;;;5032216;28;20046;-87
2022/11/13 10:50:39;;;;;;;18.63;16.35;;;;;;;;;;5016216;28;20066;-87
2022/11/13 10:53:14;;;;;;;16.17;12.93;;;;;;;;;;5030452;28;20049;-87
2022/11/13 10:55:40;;;;;;;21.48;16.83;;;;;;;;;;5029794;28;20046;-87
2022/11/13 10:58:15;;;;;;;16.02;12.98;;;;;;;;;;5034284;28;20033;-86
2022/11/13 11:00:46;;;;;;;15.07;12.48;;;;;;;;;;5035343;28;20049;-87
2022/11/13 11:03:22;;;;;;;17.05;13.13;;;;;;;;;;5036040;28;20401;-87
2022/11/13 11:05:59;;;;;;;15.60;13.98;;;;;;;;;;5033262;28;20052;-86
2022/11/13 11:08:28;;;;;;;17.83;14.43;;;;;;;;;;5033539;28;20128;-86
2022/11/13 11:13:41;;;;;;;15.38;12.77;;;;;;;;;;5030875;28;20041;-87
2022/11/13 11:16:08;;;;;;;14.75;12.85;;;;;;;;;;5033697;28;20120;-86
2022/11/13 11:18:50;;;;;;;18.90;13.95;;;;;;;;;;5032081;28;20037;-86
2022/11/13 11:21:16;;;;;;;;;;;;;;;;;;5036256;28;20075;-86
2022/11/13 11:23:42;;;;;;;14.95;12.93;;;;;;;;;;5034408;28;20419;-85
2022/11/13 11:26:23;;;;;;;15.63;12.80;;;;;;;;;;5018761;28;20073;-85
2022/11/13 11:29:06;;;;;;;15.45;11.25;;;;;;;;;;5032300;28;20041;-86
2022/11/13 11:31:37;;;;;;;13.77;11.55;;;;;;;;;;5032508;28;20325;-86
2022/11/13 11:34:17;;;;;;;20.15;12.25;;;;;;;;;;5009627;28;20483;-86
2022/11/13 11:36:43;;;;;;;15.25;13.65;;;;;;;;;;5032054;28;20054;-86
2022/11/13 11:39:28;;;;;;;17.77;13.73;;;;;;;;;;5017355;28;20057;-86
2022/11/13 11:42:03;;;;;;;14.30;12.20;;;;;;;;;;5017771;28;20041;-87
2022/11/13 11:44:33;;;;;;;18.52;12.88;;;;;;;;;;5001254;28;20525;-86
2022/11/13 11:46:59;;;;;;;16.45;12.35;;;;;;;;;;5016427;28;20049;-87
2022/11/13 11:49:26;;;;;;;16.00;12.00;;;;;;;;;;5027743;28;20504;-86
2022/11/13 11:52:05;;;;;;;14.48;11.60;;;;;;;;;;5015859;28;20107;-87
2022/11/13 11:54:40;;;;;;;18.00;11.57;;;;;;;;;;5014560;28;20041;-88
2022/11/13 11:57:18;;;;;;;15.90;10.88;;;;;;;;;;5035723;28;20038;-85
2022/11/13 12:00:02;;;;;;;13.90;11.43;;;;;;;;;;5033367;28;20037;-86
2022/11/13 12:02:46;;;;;;;13.48;11.18;;;;;;;;;;5032769;28;20405;-86
2022/11/13 12:05:22;;;;;;;13.00;10.40;;;;;;;;;;5031862;28;20052;-84
2022/11/13 12:07:56;;;;;;;15.73;10.43;;;;;;;;;;5032610;28;20068;-84
2022/11/13 12:10:40;;;;;;;14.57;9.38;;;;;;;;;;5035219;28;20052;-84
2022/11/13 12:13:06;;;;;;;11.73;9.98;;;;;;;;;;5033990;28;20069;-84
2022/11/13 12:15:51;;;;;;;14.05;10.57;;;;;;;;;;5034868;28;20049;-85
2022/11/13 12:18:35;;;;;;;14.63;11.10;;;;;;;;;;5035151;28;20057;-84
2022/11/13 12:21:02;;;;;;;13.38;10.32;;;;;;;;;;5035281;28;20045;-85
2022/11/13 12:23:28;;;;;;;13.02;10.05;;;;;;;;;;5000988;28;20053;-85
2022/11/13 12:26:01;;;;;;;14.18;11.55;;;;;;;;;;5033513;28;20534;-85
2022/11/13 12:28:39;;;;;;;15.38;10.95;;;;;;;;;;5035000;28;20412;-86
2022/11/13 12:31:05;;;;;;;12.48;10.75;;;;;;;;;;5017630;28;20050;-85
2022/11/13 12:33:31;;;;;;;15.30;11.00;;;;;;;;;;5033297;28;20048;-85
2022/11/13 12:35:57;;;;;;;14.13;9.65;;;;;;;;;;5029784;28;20124;-85
2022/11/13 12:38:30;;;;;;;13.18;10.48;;;;;;;;;;5017791;28;20049;-85
2022/11/13 12:41:07;;;;;;;15.27;10.75;;;;;;;;;;5034863;28;20046;-85
2022/11/13 12:43:36;;;;;;;12.73;10.02;;;;;;;;;;5031004;28;20649;-84
2022/11/13 12:46:07;;;;;;;12.00;10.18;;;;;;;;;;5034063;28;20099;-85
2022/11/13 12:48:32;;;;;;;13.30;10.65;;;;;;;;;;5031675;28;20053;-85
2022/11/13 12:51:00;;;;;;;13.80;10.70;;;;;;;;;;5035534;28;20038;-85
2022/11/13 12:53:27;;;;;;;13.98;11.50;;;;;;;;;;5033623;28;20453;-85
2022/11/13 12:55:55;;;;;;;21.38;11.02;;;;;;;;;;5034956;28;20042;-84
2022/11/13 12:58:24;;;;;;;12.55;10.02;;;;;;;;;;5031093;28;20113;-85
2022/11/13 13:01:06;;;;;;;12.38;10.27;;;;;;;;;;5056024;28;20018;-86
2022/11/13 13:03:41;;;;;;;11.55;8.95;;;;;;;;;;4994871;28;20575;-85
2022/11/13 13:06:16;;;;;;;12.95;9.57;;;;;;;;;;5006982;28;20053;-85
2022/11/13 13:08:42;;;;;;;11.18;8.90;;;;;;;;;;5009319;28;20049;-84
2022/11/13 13:11:20;;;;;;;13.93;9.57;;;;;;;;;;5031434;28;20108;-85
2022/11/13 13:13:51;;;;;;;11.38;9.05;;;;;;;;;;5014776;28;20049;-85
2022/11/13 13:16:25;;;;;;;11.93;8.95;;;;;;;;;;5031173;28;20473;-85
2022/11/13 13:18:51;;;;;;;11.80;9.23;;;;;;;;;;5033640;28;20060;-85
2022/11/13 13:21:18;;;;;;;12.65;9.25;;;;;;;;;;5032154;28;20053;-86
2022/11/13 13:23:46;;;;;;;10.75;8.50;;;;;;;;;;5034515;28;20041;-85
2022/11/13 13:26:22;;;;;;;11.55;9.43;;;;;;;;;;5033088;28;20512;-86
2022/11/13 13:28:53;;;;;;;12.30;8.85;;;;;;;;;;5034189;28;20050;-86
2022/11/13 13:31:24;;;;;;;10.60;8.75;;;;;;;;;;5034508;28;20037;-85
2022/11/13 13:33:50;;;;;;;12.88;9.70;;;;;;;;;;5033362;28;20091;-86
2022/11/13 13:36:33;;;;;;;11.40;9.27;;;;;;;;;;5000683;28;20049;-86
2022/11/13 13:39:02;;;;;;;11.32;8.50;;;;;;;;;;5016698;28;20049;-86
2022/11/13 13:41:31;;;;;;;10.88;9.05;;;;;;;;;;5030372;28;20441;-86
2022/11/13 13:44:01;;;;;;;10.93;8.82;;;;;;;;;;5033117;28;20041;-86
2022/11/13 13:46:30;;;;;;;11.55;8.52;;;;;;;;;;5033025;28;20117;-86
2022/11/13 13:49:01;;;;;;;12.98;9.43;;;;;;;;;;5017486;28;20041;-86
2022/11/13 13:51:29;;;;;;;10.95;9.43;;;;;;;;;;5034495;28;20058;-86
2022/11/13 13:53:56;;;;;;;11.93;9.15;;;;;;;;;;5032973;28;20447;-86
2022/11/13 13:56:22;;;;;;;12.32;8.95;;;;;;;;;;5034859;28;20041;-86
2022/11/13 13:58:49;;;;;;;12.70;8.73;;;;;;;;;;5034497;28;20045;-86
2022/11/13 14:01:25;;;;;;;12.98;8.30;;;;;;;;;;5034361;28;20485;-86
2022/11/13 14:04:04;;;;;;;10.82;8.90;;;;;;;;;;5034720;28;20042;-87
2022/11/13 14:06:30;;;;;;;16.83;12.02;;;;;;;;;;5033018;28;20046;-86
2022/11/13 14:09:06;;;;;;;11.50;8.80;;;;;;;;;;5035777;28;20101;-86
2022/11/13 14:11:32;;;;;;;10.82;8.27;;;;;;;;;;5034246;28;20098;-86
2022/11/13 14:14:08;;;;;;;12.38;9.60;;;;;;;;;;5026687;28;20048;-86
2022/11/13 14:16:45;;;;;;;11.75;9.60;;;;;;;;;;5038396;28;20083;-86
2022/11/13 14:19:11;;;;;;;13.48;9.65;;;;;;;;;;5037589;28;20451;-86
2022/11/13 14:21:37;;;;;;;13.23;9.95;;;;;;;;;;5039818;28;20041;-86
2022/11/13 14:24:04;;;;;;;15.23;10.65;;;;;;;;;;5038858;28;20041;-86
2022/11/13 14:26:30;;;;;;;13.60;10.52;;;;;;;;;;5017025;28;20097;-86
2022/11/13 14:28:58;;;;;;;17.50;13.00;;;;;;;;;;5035519;28;20404;-86